Capitol Logistics 936

Operating for DHL



EDDK
Cologne Bonn Airport
Cologne, DE
LZIB
M. R. Štefánik Airport
Bratislava, SK

Activity Log

Date Flight Route Aircraft Duration
02/03/2022 CPX936 KUMI1Q KUMIK Y854 BOMBI L984 SULUS Z650 TIPAM T703 BEPAS DITIS KUVEX KUVE2R A30F 1h 15m

Route Details

Aircraft Information
Group: European Fleet
Types: A30F,A31F,B738
Route Data
Demand: M
Distance: 425nm
Duration: 1h 39m
Recm'd Route: KUMI9B KUMIK L603 TESGA Z719 ETOLU Z723 KONAP OSBIT L984 KOMIB TONSU Z650 TIPAM T703 DEXIT NURMI SUNIS XOMBA BERVA BERV3R
Origin Wx: EDDK 272150Z AUTO 31006KT 250V330 CAVOK 10/04 Q1023 NOSIG
Dest. Wx: LZIB 272200Z 31010KT CAVOK 16/09 Q1017 NOSIG
Notes:

Financial History
Total Freight: 57,077lbs
Average Load: 57,077lbs/flt
Fuel Used: 14,326lbs
Avg. Fuel Used: 14,326lbs/flt
Fuel Expense: $6,590
Avg. Fuel Expense: $6,590
Avg. Fuel Cost: $0.46/lbs
Total Gross Income: $116,494
Pilot Pay: $259
Total Expenses: $15,589
Total Revenue: $94,015
Average Revenue: $116,494.16